sensor_id;sensor_type;location;lat;lon;timestamp;temperature;humidity
7399;DHT22;3740;50.700;7.184;2023-05-10T00:00:05;14.80;99.90
7399;DHT22;3740;50.700;7.184;2023-05-10T00:02:31;14.80;99.90
7399;DHT22;3740;50.700;7.184;2023-05-10T00:04:56;14.80;99.90
7399;DHT22;3740;50.700;7.184;2023-05-10T00:07:22;14.80;99.90
7399;DHT22;3740;50.700;7.184;2023-05-10T00:09:47;14.70;99.90
7399;DHT22;3740;50.700;7.184;2023-05-10T00:12:13;14.80;99.90
7399;DHT22;3740;50.700;7.184;2023-05-10T00:14:38;14.90;99.90
7399;DHT22;3740;50.700;7.184;2023-05-10T00:17:04;14.90;99.90
7399;DHT22;3740;50.700;7.184;2023-05-10T00:19:30;14.90;99.90
7399;DHT22;3740;50.700;7.184;2023-05-10T00:21:55;14.90;99.90
7399;DHT22;3740;50.700;7.184;2023-05-10T00:24:21;14.80;99.90
7399;DHT22;3740;50.700;7.184;2023-05-10T00:26:47;14.90;99.90
7399;DHT22;3740;50.700;7.184;2023-05-10T00:29:12;14.90;99.90
7399;DHT22;3740;50.700;7.184;2023-05-10T00:31:38;14.90;99.90
7399;DHT22;3740;50.700;7.184;2023-05-10T00:34:03;14.90;99.90
7399;DHT22;3740;50.700;7.184;2023-05-10T00:36:29;14.90;99.90
7399;DHT22;3740;50.700;7.184;2023-05-10T00:38:54;14.90;99.90
7399;DHT22;3740;50.700;7.184;2023-05-10T00:41:20;14.90;99.90
7399;DHT22;3740;50.700;7.184;2023-05-10T00:43:46;14.90;99.90
7399;DHT22;3740;50.700;7.184;2023-05-10T00:46:13;14.90;99.90
7399;DHT22;3740;50.700;7.184;2023-05-10T00:48:39;14.90;99.90
7399;DHT22;3740;50.700;7.184;2023-05-10T00:51:05;14.80;99.90
7399;DHT22;3740;50.700;7.184;2023-05-10T00:53:31;14.80;99.90
7399;DHT22;3740;50.700;7.184;2023-05-10T00:55:58;14.80;99.90
7399;DHT22;3740;50.700;7.184;2023-05-10T00:58:24;14.80;99.90
7399;DHT22;3740;50.700;7.184;2023-05-10T01:00:55;14.80;99.90
7399;DHT22;3740;50.700;7.184;2023-05-10T01:03:22;14.80;99.90
7399;DHT22;3740;50.700;7.184;2023-05-10T01:05:47;14.80;99.90
7399;DHT22;3740;50.700;7.184;2023-05-10T01:08:13;14.80;99.90
7399;DHT22;3740;50.700;7.184;2023-05-10T01:10:41;14.80;99.90
7399;DHT22;3740;50.700;7.184;2023-05-10T01:13:07;14.80;99.90
7399;DHT22;3740;50.700;7.184;2023-05-10T01:15:32;14.70;99.90
7399;DHT22;3740;50.700;7.184;2023-05-10T01:17:59;14.80;99.90
7399;DHT22;3740;50.700;7.184;2023-05-10T01:20:27;14.80;99.90
7399;DHT22;3740;50.700;7.184;2023-05-10T01:23:24;14.70;99.90
7399;DHT22;3740;50.700;7.184;2023-05-10T01:26:12;14.60;99.90
7399;DHT22;3740;50.700;7.184;2023-05-10T01:32:36;14.60;99.90
7399;DHT22;3740;50.700;7.184;2023-05-10T01:34:48;14.60;99.90
7399;DHT22;3740;50.700;7.184;2023-05-10T01:37:21;14.50;99.90
7399;DHT22;3740;50.700;7.184;2023-05-10T01:39:58;14.50;99.90
7399;DHT22;3740;50.700;7.184;2023-05-10T01:42:28;14.60;99.90
7399;DHT22;3740;50.700;7.184;2023-05-10T01:45:18;14.50;99.90
7399;DHT22;3740;50.700;7.184;2023-05-10T01:47:51;14.60;99.90
7399;DHT22;3740;50.700;7.184;2023-05-10T01:50:24;14.60;99.90
7399;DHT22;3740;50.700;7.184;2023-05-10T01:52:58;14.60;99.90
7399;DHT22;3740;50.700;7.184;2023-05-10T01:55:27;14.50;99.90
7399;DHT22;3740;50.700;7.184;2023-05-10T01:58:01;14.50;99.90
7399;DHT22;3740;50.700;7.184;2023-05-10T02:00:28;14.50;99.90
7399;DHT22;3740;50.700;7.184;2023-05-10T02:02:54;14.50;99.90
7399;DHT22;3740;50.700;7.184;2023-05-10T02:05:21;14.50;99.90
7399;DHT22;3740;50.700;7.184;2023-05-10T02:07:49;14.60;99.90
7399;DHT22;3740;50.700;7.184;2023-05-10T02:10:15;14.60;99.90
7399;DHT22;3740;50.700;7.184;2023-05-10T02:12:43;14.60;99.90
7399;DHT22;3740;50.700;7.184;2023-05-10T02:15:12;14.50;99.90
7399;DHT22;3740;50.700;7.184;2023-05-10T02:17:39;14.60;99.90
7399;DHT22;3740;50.700;7.184;2023-05-10T02:20:06;14.60;99.90
7399;DHT22;3740;50.700;7.184;2023-05-10T02:22:34;14.60;99.90
7399;DHT22;3740;50.700;7.184;2023-05-10T02:25:01;14.60;99.90
7399;DHT22;3740;50.700;7.184;2023-05-10T02:27:28;14.60;99.90
7399;DHT22;3740;50.700;7.184;2023-05-10T02:29:55;14.60;99.90
7399;DHT22;3740;50.700;7.184;2023-05-10T02:32:22;14.50;99.90
7399;DHT22;3740;50.700;7.184;2023-05-10T02:34:48;14.50;99.90
7399;DHT22;3740;50.700;7.184;2023-05-10T02:37:19;14.50;99.90
7399;DHT22;3740;50.700;7.184;2023-05-10T02:39:49;14.40;99.90
7399;DHT22;3740;50.700;7.184;2023-05-10T02:42:19;14.40;99.90
7399;DHT22;3740;50.700;7.184;2023-05-10T02:44:49;14.40;99.90
7399;DHT22;3740;50.700;7.184;2023-05-10T02:47:15;14.40;99.90
7399;DHT22;3740;50.700;7.184;2023-05-10T02:49:41;14.40;99.90
7399;DHT22;3740;50.700;7.184;2023-05-10T02:52:07;14.30;99.90
7399;DHT22;3740;50.700;7.184;2023-05-10T02:54:41;14.20;99.90
7399;DHT22;3740;50.700;7.184;2023-05-10T02:57:11;14.20;99.90
7399;DHT22;3740;50.700;7.184;2023-05-10T02:59:40;14.30;99.90
7399;DHT22;3740;50.700;7.184;2023-05-10T03:02:08;14.30;99.90
7399;DHT22;3740;50.700;7.184;2023-05-10T03:04:34;14.30;99.90
7399;DHT22;3740;50.700;7.184;2023-05-10T03:07:00;14.30;99.90
7399;DHT22;3740;50.700;7.184;2023-05-10T03:09:25;14.30;99.90
7399;DHT22;3740;50.700;7.184;2023-05-10T03:15:06;14.50;99.90
7399;DHT22;3740;50.700;7.184;2023-05-10T03:17:54;14.50;99.90
7399;DHT22;3740;50.700;7.184;2023-05-10T03:20:35;14.60;99.90
7399;DHT22;3740;50.700;7.184;2023-05-10T03:23:22;14.60;99.90
7399;DHT22;3740;50.700;7.184;2023-05-10T03:25:52;14.60;99.90
7399;DHT22;3740;50.700;7.184;2023-05-10T03:28:18;14.60;99.90
7399;DHT22;3740;50.700;7.184;2023-05-10T03:30:46;14.60;99.90
7399;DHT22;3740;50.700;7.184;2023-05-10T03:33:12;14.60;99.90
7399;DHT22;3740;50.700;7.184;2023-05-10T03:35:38;14.50;99.90
7399;DHT22;3740;50.700;7.184;2023-05-10T03:38:04;14.50;99.90
7399;DHT22;3740;50.700;7.184;2023-05-10T03:40:29;14.40;99.90
7399;DHT22;3740;50.700;7.184;2023-05-10T03:42:59;14.40;99.90
7399;DHT22;3740;50.700;7.184;2023-05-10T03:45:25;14.40;99.90
7399;DHT22;3740;50.700;7.184;2023-05-10T03:47:51;14.30;99.90
7399;DHT22;3740;50.700;7.184;2023-05-10T03:50:16;14.30;99.90
7399;DHT22;3740;50.700;7.184;2023-05-10T03:52:43;14.40;99.90
7399;DHT22;3740;50.700;7.184;2023-05-10T03:55:09;14.40;99.90
7399;DHT22;3740;50.700;7.184;2023-05-10T03:57:35;14.40;99.90
7399;DHT22;3740;50.700;7.184;2023-05-10T04:00:01;14.40;99.90
7399;DHT22;3740;50.700;7.184;2023-05-10T04:02:26;14.40;99.90
7399;DHT22;3740;50.700;7.184;2023-05-10T04:04:52;14.40;99.90
7399;DHT22;3740;50.700;7.184;2023-05-10T04:07:17;14.40;99.90
7399;DHT22;3740;50.700;7.184;2023-05-10T04:09:43;14.40;99.90
7399;DHT22;3740;50.700;7.184;2023-05-10T04:12:09;14.40;99.90
7399;DHT22;3740;50.700;7.184;2023-05-10T04:14:35;14.50;99.90
7399;DHT22;3740;50.700;7.184;2023-05-10T04:17:00;14.50;99.90
7399;DHT22;3740;50.700;7.184;2023-05-10T04:19:29;14.50;99.90
7399;DHT22;3740;50.700;7.184;2023-05-10T04:21:55;14.50;99.90
7399;DHT22;3740;50.700;7.184;2023-05-10T04:24:21;14.60;99.90
7399;DHT22;3740;50.700;7.184;2023-05-10T04:26:46;14.60;99.90
7399;DHT22;3740;50.700;7.184;2023-05-10T04:29:12;14.60;99.90
7399;DHT22;3740;50.700;7.184;2023-05-10T04:31:37;14.60;99.90
7399;DHT22;3740;50.700;7.184;2023-05-10T04:34:03;14.70;99.90
7399;DHT22;3740;50.700;7.184;2023-05-10T04:36:29;14.70;99.90
7399;DHT22;3740;50.700;7.184;2023-05-10T04:38:54;14.80;99.90
7399;DHT22;3740;50.700;7.184;2023-05-10T04:41:20;14.80;99.90
7399;DHT22;3740;50.700;7.184;2023-05-10T04:43:46;14.80;99.90
7399;DHT22;3740;50.700;7.184;2023-05-10T04:46:11;14.80;99.90
7399;DHT22;3740;50.700;7.184;2023-05-10T04:48:37;14.80;99.90
7399;DHT22;3740;50.700;7.184;2023-05-10T04:51:03;14.80;99.90
7399;DHT22;3740;50.700;7.184;2023-05-10T04:53:29;14.80;99.90
7399;DHT22;3740;50.700;7.184;2023-05-10T04:55:55;14.80;99.90
7399;DHT22;3740;50.700;7.184;2023-05-10T04:58:20;14.90;99.90
7399;DHT22;3740;50.700;7.184;2023-05-10T05:00:46;14.90;99.90
7399;DHT22;3740;50.700;7.184;2023-05-10T05:03:12;14.90;99.90
7399;DHT22;3740;50.700;7.184;2023-05-10T05:05:37;14.90;99.90
7399;DHT22;3740;50.700;7.184;2023-05-10T05:08:03;14.90;99.90
7399;DHT22;3740;50.700;7.184;2023-05-10T05:10:29;14.90;99.90
7399;DHT22;3740;50.700;7.184;2023-05-10T05:12:55;14.90;99.90
7399;DHT22;3740;50.700;7.184;2023-05-10T05:15:20;14.90;99.90
7399;DHT22;3740;50.700;7.184;2023-05-10T05:17:46;14.90;99.90
7399;DHT22;3740;50.700;7.184;2023-05-10T05:20:12;14.90;99.90
7399;DHT22;3740;50.700;7.184;2023-05-10T05:22:38;14.90;99.90
7399;DHT22;3740;50.700;7.184;2023-05-10T05:25:04;14.90;99.90
7399;DHT22;3740;50.700;7.184;2023-05-10T05:27:30;14.80;99.90
7399;DHT22;3740;50.700;7.184;2023-05-10T05:29:57;14.80;99.90
7399;DHT22;3740;50.700;7.184;2023-05-10T05:32:23;14.80;99.90
7399;DHT22;3740;50.700;7.184;2023-05-10T05:34:49;14.80;99.90
7399;DHT22;3740;50.700;7.184;2023-05-10T05:37:19;14.90;99.90
7399;DHT22;3740;50.700;7.184;2023-05-10T05:39:46;14.90;99.90
7399;DHT22;3740;50.700;7.184;2023-05-10T05:42:13;14.90;99.90
7399;DHT22;3740;50.700;7.184;2023-05-10T05:44:39;15.00;99.90
7399;DHT22;3740;50.700;7.184;2023-05-10T05:47:05;15.00;99.90
7399;DHT22;3740;50.700;7.184;2023-05-10T05:49:31;15.10;99.90
7399;DHT22;3740;50.700;7.184;2023-05-10T05:52:00;15.10;99.90
7399;DHT22;3740;50.700;7.184;2023-05-10T05:54:26;15.10;99.90
7399;DHT22;3740;50.700;7.184;2023-05-10T05:56:57;15.10;99.90
7399;DHT22;3740;50.700;7.184;2023-05-10T05:59:23;15.10;99.90
7399;DHT22;3740;50.700;7.184;2023-05-10T06:01:49;15.10;99.90
7399;DHT22;3740;50.700;7.184;2023-05-10T06:04:15;15.10;99.90
7399;DHT22;3740;50.700;7.184;2023-05-10T06:06:41;15.20;99.90
7399;DHT22;3740;50.700;7.184;2023-05-10T06:09:07;15.20;99.90
7399;DHT22;3740;50.700;7.184;2023-05-10T06:11:33;15.30;99.90
7399;DHT22;3740;50.700;7.184;2023-05-10T06:13:59;15.30;99.90
7399;DHT22;3740;50.700;7.184;2023-05-10T06:16:25;15.30;99.90
7399;DHT22;3740;50.700;7.184;2023-05-10T06:18:51;15.40;99.90
7399;DHT22;3740;50.700;7.184;2023-05-10T06:21:17;15.50;99.90
7399;DHT22;3740;50.700;7.184;2023-05-10T06:23:42;15.60;99.90
7399;DHT22;3740;50.700;7.184;2023-05-10T06:26:08;15.70;99.90
7399;DHT22;3740;50.700;7.184;2023-05-10T06:28:33;15.70;99.90
7399;DHT22;3740;50.700;7.184;2023-05-10T06:30:59;15.80;99.90
7399;DHT22;3740;50.700;7.184;2023-05-10T06:33:25;15.70;99.90
7399;DHT22;3740;50.700;7.184;2023-05-10T06:35:51;15.80;99.90
7399;DHT22;3740;50.700;7.184;2023-05-10T06:38:16;15.90;99.90
7399;DHT22;3740;50.700;7.184;2023-05-10T06:40:42;15.80;99.90
7399;DHT22;3740;50.700;7.184;2023-05-10T06:43:08;15.80;99.90
7399;DHT22;3740;50.700;7.184;2023-05-10T06:45:34;15.70;99.90
7399;DHT22;3740;50.700;7.184;2023-05-10T06:47:59;15.70;99.90
7399;DHT22;3740;50.700;7.184;2023-05-10T06:50:25;15.80;99.90
7399;DHT22;3740;50.700;7.184;2023-05-10T06:52:51;15.80;99.90
7399;DHT22;3740;50.700;7.184;2023-05-10T06:55:17;15.80;99.90
7399;DHT22;3740;50.700;7.184;2023-05-10T06:57:42;15.60;99.90
7399;DHT22;3740;50.700;7.184;2023-05-10T07:00:08;15.60;99.90
7399;DHT22;3740;50.700;7.184;2023-05-10T07:02:35;15.50;99.90
7399;DHT22;3740;50.700;7.184;2023-05-10T07:05:00;15.60;99.90
7399;DHT22;3740;50.700;7.184;2023-05-10T07:07:26;15.40;99.90
7399;DHT22;3740;50.700;7.184;2023-05-10T07:09:52;15.30;99.90
7399;DHT22;3740;50.700;7.184;2023-05-10T07:12:17;15.30;99.90
7399;DHT22;3740;50.700;7.184;2023-05-10T07:14:43;15.30;99.90
7399;DHT22;3740;50.700;7.184;2023-05-10T07:17:08;15.40;99.90
7399;DHT22;3740;50.700;7.184;2023-05-10T07:19:34;15.40;99.90
7399;DHT22;3740;50.700;7.184;2023-05-10T07:22:00;15.40;99.90
7399;DHT22;3740;50.700;7.184;2023-05-10T07:24:26;15.40;99.90
7399;DHT22;3740;50.700;7.184;2023-05-10T07:26:51;15.40;99.90
7399;DHT22;3740;50.700;7.184;2023-05-10T07:29:17;15.20;99.90
7399;DHT22;3740;50.700;7.184;2023-05-10T07:31:42;14.90;99.90
7399;DHT22;3740;50.700;7.184;2023-05-10T07:34:08;14.90;99.90
7399;DHT22;3740;50.700;7.184;2023-05-10T07:36:34;15.00;99.90
7399;DHT22;3740;50.700;7.184;2023-05-10T07:39:00;15.00;99.90
7399;DHT22;3740;50.700;7.184;2023-05-10T07:41:26;15.00;99.90
7399;DHT22;3740;50.700;7.184;2023-05-10T07:43:52;15.00;99.90
7399;DHT22;3740;50.700;7.184;2023-05-10T07:46:17;15.00;99.90
7399;DHT22;3740;50.700;7.184;2023-05-10T07:48:45;15.00;99.90
7399;DHT22;3740;50.700;7.184;2023-05-10T07:51:10;15.10;99.90
7399;DHT22;3740;50.700;7.184;2023-05-10T07:53:37;15.00;99.90
7399;DHT22;3740;50.700;7.184;2023-05-10T07:56:21;15.10;99.90
7399;DHT22;3740;50.700;7.184;2023-05-10T07:58:46;15.30;99.90
7399;DHT22;3740;50.700;7.184;2023-05-10T08:01:12;15.30;99.90
7399;DHT22;3740;50.700;7.184;2023-05-10T08:03:37;15.40;99.90
7399;DHT22;3740;50.700;7.184;2023-05-10T08:06:03;15.40;99.90
7399;DHT22;3740;50.700;7.184;2023-05-10T08:08:29;15.50;99.90
7399;DHT22;3740;50.700;7.184;2023-05-10T08:10:54;15.50;99.90
7399;DHT22;3740;50.700;7.184;2023-05-10T08:13:23;15.60;99.90
7399;DHT22;3740;50.700;7.184;2023-05-10T08:15:49;15.60;99.90
7399;DHT22;3740;50.700;7.184;2023-05-10T08:18:14;15.70;99.90
7399;DHT22;3740;50.700;7.184;2023-05-10T08:20:40;15.70;99.90
7399;DHT22;3740;50.700;7.184;2023-05-10T08:23:05;15.90;99.90
7399;DHT22;3740;50.700;7.184;2023-05-10T08:25:31;16.00;99.90
7399;DHT22;3740;50.700;7.184;2023-05-10T08:27:57;16.10;99.90
7399;DHT22;3740;50.700;7.184;2023-05-10T08:30:22;16.10;99.90
7399;DHT22;3740;50.700;7.184;2023-05-10T08:32:48;16.20;99.90
7399;DHT22;3740;50.700;7.184;2023-05-10T08:35:14;16.20;99.90
7399;DHT22;3740;50.700;7.184;2023-05-10T08:37:39;16.20;99.90
7399;DHT22;3740;50.700;7.184;2023-05-10T08:40:05;16.20;99.90
7399;DHT22;3740;50.700;7.184;2023-05-10T08:42:34;16.20;99.90
7399;DHT22;3740;50.700;7.184;2023-05-10T08:45:02;16.20;99.90
7399;DHT22;3740;50.700;7.184;2023-05-10T08:47:29;16.20;99.90
7399;DHT22;3740;50.700;7.184;2023-05-10T08:49:55;16.30;99.90
7399;DHT22;3740;50.700;7.184;2023-05-10T08:52:23;16.30;99.90
7399;DHT22;3740;50.700;7.184;2023-05-10T08:54:50;16.30;99.90
7399;DHT22;3740;50.700;7.184;2023-05-10T08:57:15;16.20;99.90
7399;DHT22;3740;50.700;7.184;2023-05-10T08:59:41;16.30;99.90
7399;DHT22;3740;50.700;7.184;2023-05-10T09:02:09;16.30;99.90
7399;DHT22;3740;50.700;7.184;2023-05-10T09:04:35;16.30;99.90
7399;DHT22;3740;50.700;7.184;2023-05-10T09:07:01;16.20;99.90
7399;DHT22;3740;50.700;7.184;2023-05-10T09:09:27;15.90;99.90
7399;DHT22;3740;50.700;7.184;2023-05-10T09:11:53;15.90;99.90
7399;DHT22;3740;50.700;7.184;2023-05-10T09:14:19;15.70;99.90
7399;DHT22;3740;50.700;7.184;2023-05-10T09:16:45;15.50;99.90
7399;DHT22;3740;50.700;7.184;2023-05-10T09:19:11;15.20;99.90
7399;DHT22;3740;50.700;7.184;2023-05-10T09:21:37;15.00;99.90
7399;DHT22;3740;50.700;7.184;2023-05-10T09:24:07;15.00;99.90
7399;DHT22;3740;50.700;7.184;2023-05-10T09:26:34;14.90;99.90
7399;DHT22;3740;50.700;7.184;2023-05-10T09:29:01;14.90;99.90
7399;DHT22;3740;50.700;7.184;2023-05-10T09:31:46;14.90;99.90
7399;DHT22;3740;50.700;7.184;2023-05-10T09:34:16;14.90;99.90
7399;DHT22;3740;50.700;7.184;2023-05-10T09:36:56;14.90;99.90
7399;DHT22;3740;50.700;7.184;2023-05-10T09:39:36;14.90;99.90
7399;DHT22;3740;50.700;7.184;2023-05-10T09:42:07;14.90;99.90
7399;DHT22;3740;50.700;7.184;2023-05-10T09:44:34;15.00;99.90
7399;DHT22;3740;50.700;7.184;2023-05-10T09:47:03;15.20;99.90
7399;DHT22;3740;50.700;7.184;2023-05-10T09:49:29;15.30;99.90
7399;DHT22;3740;50.700;7.184;2023-05-10T09:52:06;15.50;99.90
7399;DHT22;3740;50.700;7.184;2023-05-10T09:54:32;15.70;99.90
7399;DHT22;3740;50.700;7.184;2023-05-10T09:56:58;15.80;99.90
7399;DHT22;3740;50.700;7.184;2023-05-10T09:59:25;15.90;99.90
7399;DHT22;3740;50.700;7.184;2023-05-10T10:01:55;15.90;99.90
7399;DHT22;3740;50.700;7.184;2023-05-10T10:04:21;16.00;99.90
7399;DHT22;3740;50.700;7.184;2023-05-10T10:06:58;16.20;99.90
7399;DHT22;3740;50.700;7.184;2023-05-10T10:09:24;16.20;99.90
7399;DHT22;3740;50.700;7.184;2023-05-10T10:11:50;16.30;99.90
7399;DHT22;3740;50.700;7.184;2023-05-10T10:14:18;16.40;99.90
7399;DHT22;3740;50.700;7.184;2023-05-10T10:16:44;16.40;99.90
7399;DHT22;3740;50.700;7.184;2023-05-10T10:19:10;16.60;99.90
7399;DHT22;3740;50.700;7.184;2023-05-10T10:21:35;16.70;99.90
7399;DHT22;3740;50.700;7.184;2023-05-10T10:24:01;16.80;99.90
7399;DHT22;3740;50.700;7.184;2023-05-10T10:26:27;16.80;99.90
7399;DHT22;3740;50.700;7.184;2023-05-10T10:34:28;16.50;99.90
7399;DHT22;3740;50.700;7.184;2023-05-10T10:36:55;16.40;99.90
7399;DHT22;3740;50.700;7.184;2023-05-10T10:39:22;16.50;99.90
7399;DHT22;3740;50.700;7.184;2023-05-10T10:41:54;16.40;99.90
7399;DHT22;3740;50.700;7.184;2023-05-10T10:47:01;16.50;99.90
7399;DHT22;3740;50.700;7.184;2023-05-10T10:49:28;16.40;99.90
7399;DHT22;3740;50.700;7.184;2023-05-10T10:54:53;15.90;99.90
7399;DHT22;3740;50.700;7.184;2023-05-10T10:57:22;15.80;99.90
7399;DHT22;3740;50.700;7.184;2023-05-10T10:59:48;16.00;99.90
7399;DHT22;3740;50.700;7.184;2023-05-10T11:03:17;16.20;99.90
7399;DHT22;3740;50.700;7.184;2023-05-10T11:10:38;18.50;99.90
7399;DHT22;3740;50.700;7.184;2023-05-10T11:13:08;18.30;99.90
7399;DHT22;3740;50.700;7.184;2023-05-10T11:15:39;17.80;99.90
7399;DHT22;3740;50.700;7.184;2023-05-10T11:18:28;17.50;99.90
7399;DHT22;3740;50.700;7.184;2023-05-10T11:20:58;17.40;99.90
7399;DHT22;3740;50.700;7.184;2023-05-10T11:23:30;17.60;99.90
7399;DHT22;3740;50.700;7.184;2023-05-10T11:25:56;17.50;99.90
7399;DHT22;3740;50.700;7.184;2023-05-10T11:28:22;17.40;99.90
7399;DHT22;3740;50.700;7.184;2023-05-10T11:30:48;17.40;99.90
7399;DHT22;3740;50.700;7.184;2023-05-10T11:33:18;17.30;99.90
7399;DHT22;3740;50.700;7.184;2023-05-10T11:35:45;17.10;99.90
7399;DHT22;3740;50.700;7.184;2023-05-10T11:38:11;17.00;99.90
7399;DHT22;3740;50.700;7.184;2023-05-10T11:40:38;17.00;99.90
7399;DHT22;3740;50.700;7.184;2023-05-10T11:43:05;17.10;99.90
7399;DHT22;3740;50.700;7.184;2023-05-10T11:45:34;17.00;99.90
7399;DHT22;3740;50.700;7.184;2023-05-10T11:48:00;17.10;99.90
7399;DHT22;3740;50.700;7.184;2023-05-10T11:50:26;17.50;99.90
7399;DHT22;3740;50.700;7.184;2023-05-10T11:52:53;18.00;99.90
7399;DHT22;3740;50.700;7.184;2023-05-10T11:55:19;18.10;99.90
7399;DHT22;3740;50.700;7.184;2023-05-10T11:57:45;18.10;99.90
7399;DHT22;3740;50.700;7.184;2023-05-10T12:00:12;18.00;99.90
7399;DHT22;3740;50.700;7.184;2023-05-10T12:02:38;18.00;99.90
7399;DHT22;3740;50.700;7.184;2023-05-10T12:05:05;18.20;99.90
7399;DHT22;3740;50.700;7.184;2023-05-10T12:07:31;18.40;99.90
7399;DHT22;3740;50.700;7.184;2023-05-10T12:10:13;18.50;99.90
7399;DHT22;3740;50.700;7.184;2023-05-10T12:12:47;18.20;99.90
7399;DHT22;3740;50.700;7.184;2023-05-10T12:15:20;17.60;99.90
7399;DHT22;3740;50.700;7.184;2023-05-10T12:17:46;17.10;99.90
7399;DHT22;3740;50.700;7.184;2023-05-10T12:20:18;16.80;99.90
7399;DHT22;3740;50.700;7.184;2023-05-10T12:22:54;16.60;99.90
7399;DHT22;3740;50.700;7.184;2023-05-10T12:25:22;16.40;99.90
7399;DHT22;3740;50.700;7.184;2023-05-10T12:27:58;16.20;99.90
7399;DHT22;3740;50.700;7.184;2023-05-10T12:30:27;16.10;99.90
7399;DHT22;3740;50.700;7.184;2023-05-10T12:32:53;16.10;99.90
7399;DHT22;3740;50.700;7.184;2023-05-10T12:35:19;16.20;99.90
7399;DHT22;3740;50.700;7.184;2023-05-10T12:37:50;16.20;99.90
7399;DHT22;3740;50.700;7.184;2023-05-10T12:40:16;16.20;99.90
7399;DHT22;3740;50.700;7.184;2023-05-10T12:42:42;16.30;99.90
7399;DHT22;3740;50.700;7.184;2023-05-10T12:45:09;16.30;99.90
7399;DHT22;3740;50.700;7.184;2023-05-10T12:47:35;16.30;99.90
7399;DHT22;3740;50.700;7.184;2023-05-10T12:50:01;16.30;99.90
7399;DHT22;3740;50.700;7.184;2023-05-10T12:52:29;16.30;99.90
7399;DHT22;3740;50.700;7.184;2023-05-10T12:54:55;16.30;99.90
7399;DHT22;3740;50.700;7.184;2023-05-10T12:57:21;16.40;99.90
7399;DHT22;3740;50.700;7.184;2023-05-10T12:59:47;16.50;99.90
7399;DHT22;3740;50.700;7.184;2023-05-10T13:02:12;16.60;99.90
7399;DHT22;3740;50.700;7.184;2023-05-10T13:04:40;16.90;99.90
7399;DHT22;3740;50.700;7.184;2023-05-10T13:07:08;17.10;99.90
7399;DHT22;3740;50.700;7.184;2023-05-10T13:09:34;17.40;99.90
7399;DHT22;3740;50.700;7.184;2023-05-10T13:12:00;17.50;99.90
7399;DHT22;3740;50.700;7.184;2023-05-10T13:14:26;17.60;99.90
7399;DHT22;3740;50.700;7.184;2023-05-10T13:16:51;17.80;99.90
7399;DHT22;3740;50.700;7.184;2023-05-10T13:19:17;17.70;99.90
7399;DHT22;3740;50.700;7.184;2023-05-10T13:21:43;17.60;99.90
7399;DHT22;3740;50.700;7.184;2023-05-10T13:24:10;17.50;99.90
7399;DHT22;3740;50.700;7.184;2023-05-10T13:26:36;17.50;99.90
7399;DHT22;3740;50.700;7.184;2023-05-10T13:29:02;17.50;99.90
7399;DHT22;3740;50.700;7.184;2023-05-10T13:31:27;17.80;99.90
7399;DHT22;3740;50.700;7.184;2023-05-10T13:33:53;18.30;99.90
7399;DHT22;3740;50.700;7.184;2023-05-10T13:36:19;18.70;99.90
7399;DHT22;3740;50.700;7.184;2023-05-10T13:38:44;18.90;99.90
7399;DHT22;3740;50.700;7.184;2023-05-10T13:41:10;18.80;99.90
7399;DHT22;3740;50.700;7.184;2023-05-10T13:43:35;18.70;99.90
7399;DHT22;3740;50.700;7.184;2023-05-10T13:46:01;18.40;99.90
7399;DHT22;3740;50.700;7.184;2023-05-10T13:48:28;18.20;99.90
7399;DHT22;3740;50.700;7.184;2023-05-10T13:50:54;18.00;99.90
7399;DHT22;3740;50.700;7.184;2023-05-10T13:53:19;17.80;99.90
7399;DHT22;3740;50.700;7.184;2023-05-10T13:55:45;17.60;99.90
7399;DHT22;3740;50.700;7.184;2023-05-10T13:58:10;17.50;99.90
7399;DHT22;3740;50.700;7.184;2023-05-10T14:00:36;17.40;99.90
7399;DHT22;3740;50.700;7.184;2023-05-10T14:03:01;17.30;99.90
7399;DHT22;3740;50.700;7.184;2023-05-10T14:05:27;17.10;99.90
7399;DHT22;3740;50.700;7.184;2023-05-10T14:07:53;17.10;99.90
7399;DHT22;3740;50.700;7.184;2023-05-10T14:10:19;17.00;99.90
7399;DHT22;3740;50.700;7.184;2023-05-10T14:12:45;16.90;99.90
7399;DHT22;3740;50.700;7.184;2023-05-10T14:15:10;16.80;99.90
7399;DHT22;3740;50.700;7.184;2023-05-10T14:17:37;16.70;99.90
7399;DHT22;3740;50.700;7.184;2023-05-10T14:20:02;16.60;99.90
7399;DHT22;3740;50.700;7.184;2023-05-10T14:22:29;16.40;99.90
7399;DHT22;3740;50.700;7.184;2023-05-10T14:24:54;16.20;99.90
7399;DHT22;3740;50.700;7.184;2023-05-10T14:27:20;15.80;99.90
7399;DHT22;3740;50.700;7.184;2023-05-10T14:29:47;15.20;99.90
7399;DHT22;3740;50.700;7.184;2023-05-10T14:32:12;14.90;99.90
7399;DHT22;3740;50.700;7.184;2023-05-10T14:34:38;14.70;99.90
7399;DHT22;3740;50.700;7.184;2023-05-10T14:37:04;14.70;99.90
7399;DHT22;3740;50.700;7.184;2023-05-10T14:39:29;14.80;99.90
7399;DHT22;3740;50.700;7.184;2023-05-10T14:41:55;14.90;99.90
7399;DHT22;3740;50.700;7.184;2023-05-10T14:44:21;15.00;99.90
7399;DHT22;3740;50.700;7.184;2023-05-10T14:46:47;15.00;99.90
7399;DHT22;3740;50.700;7.184;2023-05-10T14:49:13;15.20;99.90
7399;DHT22;3740;50.700;7.184;2023-05-10T14:51:39;15.30;99.90
7399;DHT22;3740;50.700;7.184;2023-05-10T14:54:04;15.60;99.90
7399;DHT22;3740;50.700;7.184;2023-05-10T14:56:30;15.90;99.90
7399;DHT22;3740;50.700;7.184;2023-05-10T14:58:56;16.10;99.90
7399;DHT22;3740;50.700;7.184;2023-05-10T15:01:22;16.20;99.90
7399;DHT22;3740;50.700;7.184;2023-05-10T15:03:47;16.20;99.90
7399;DHT22;3740;50.700;7.184;2023-05-10T15:06:14;16.30;99.90
7399;DHT22;3740;50.700;7.184;2023-05-10T15:08:41;16.20;99.90
7399;DHT22;3740;50.700;7.184;2023-05-10T15:11:06;16.50;99.90
7399;DHT22;3740;50.700;7.184;2023-05-10T15:13:32;16.10;99.90
7399;DHT22;3740;50.700;7.184;2023-05-10T15:15:57;16.00;99.90
7399;DHT22;3740;50.700;7.184;2023-05-10T15:18:23;16.00;99.90
7399;DHT22;3740;50.700;7.184;2023-05-10T15:20:49;16.00;99.90
7399;DHT22;3740;50.700;7.184;2023-05-10T15:23:15;16.20;99.90
7399;DHT22;3740;50.700;7.184;2023-05-10T15:25:41;16.20;99.90
7399;DHT22;3740;50.700;7.184;2023-05-10T15:28:06;16.20;99.90
7399;DHT22;3740;50.700;7.184;2023-05-10T15:30:32;15.90;99.90
7399;DHT22;3740;50.700;7.184;2023-05-10T15:33:00;15.80;99.90
7399;DHT22;3740;50.700;7.184;2023-05-10T15:35:26;15.80;99.90
7399;DHT22;3740;50.700;7.184;2023-05-10T15:37:51;15.80;99.90
7399;DHT22;3740;50.700;7.184;2023-05-10T15:40:17;15.80;99.90
7399;DHT22;3740;50.700;7.184;2023-05-10T15:42:42;15.80;99.90
7399;DHT22;3740;50.700;7.184;2023-05-10T15:45:09;15.80;99.90
7399;DHT22;3740;50.700;7.184;2023-05-10T15:47:37;15.70;99.90
7399;DHT22;3740;50.700;7.184;2023-05-10T15:50:06;15.70;99.90
7399;DHT22;3740;50.700;7.184;2023-05-10T15:52:32;15.80;99.90
7399;DHT22;3740;50.700;7.184;2023-05-10T15:54:57;15.90;99.90
7399;DHT22;3740;50.700;7.184;2023-05-10T15:57:23;15.90;99.90
7399;DHT22;3740;50.700;7.184;2023-05-10T15:59:48;16.00;99.90
7399;DHT22;3740;50.700;7.184;2023-05-10T16:02:18;16.10;99.90
7399;DHT22;3740;50.700;7.184;2023-05-10T16:04:43;16.20;99.90
7399;DHT22;3740;50.700;7.184;2023-05-10T16:07:09;16.20;99.90
7399;DHT22;3740;50.700;7.184;2023-05-10T16:09:34;16.10;99.90
7399;DHT22;3740;50.700;7.184;2023-05-10T16:12:00;16.10;99.90
7399;DHT22;3740;50.700;7.184;2023-05-10T16:14:27;16.10;99.90
7399;DHT22;3740;50.700;7.184;2023-05-10T16:16:52;16.10;99.90
7399;DHT22;3740;50.700;7.184;2023-05-10T16:19:18;16.10;99.90
7399;DHT22;3740;50.700;7.184;2023-05-10T16:21:43;16.10;99.90
7399;DHT22;3740;50.700;7.184;2023-05-10T16:24:09;16.20;99.90